createdAt,value
2022-08-20T14:20:56.806Z,156.625
2022-08-20T14:21:56.844Z,107.5
2022-08-20T14:22:57.184Z,140.125
2022-08-20T14:23:56.915Z,118.5
2022-08-20T14:24:56.959Z,108.875
2022-08-20T14:25:56.988Z,89.375
2022-08-20T14:26:57.030Z,111.75
2022-08-20T14:27:57.055Z,108.75
2022-08-20T14:28:57.098Z,96.25
2022-08-20T14:29:57.142Z,90.875
2022-08-20T14:30:57.179Z,90.625
2022-08-20T14:31:57.218Z,405.125
2022-08-20T14:32:57.488Z,347
2022-08-20T14:33:57.287Z,710.25
2022-08-20T14:34:57.326Z,478.5
2022-08-20T14:35:57.369Z,351.875
2022-08-20T14:36:57.403Z,397.625
2022-08-20T14:37:57.449Z,379.25
2022-08-20T14:38:57.479Z,465.125
2022-08-20T14:39:57.576Z,396.875
2022-08-20T14:40:57.541Z,412.125
2022-08-20T14:41:57.574Z,390.75
2022-08-20T14:42:57.757Z,354.375
2022-08-20T14:43:57.655Z,273.875
2022-08-20T14:44:57.700Z,273.875
2022-08-20T14:45:57.758Z,273.875
2022-08-20T14:46:57.805Z,273.875
2022-08-20T14:47:57.861Z,273.875
2022-08-20T14:48:57.915Z,273.875
2022-08-20T14:49:57.971Z,273.875
2022-08-20T14:50:58.030Z,273.875
2022-08-20T14:51:58.090Z,273.875
2022-08-20T14:52:58.417Z,273.875
2022-08-20T14:53:58.196Z,171.25
2022-08-20T14:54:58.242Z,154.625
2022-08-20T14:56:18.309Z,115.125
2022-08-20T14:57:18.362Z,119.75
2022-08-20T14:58:18.397Z,106.625
2022-08-20T14:59:18.430Z,91.625
2022-08-20T15:00:18.460Z,80.5
2022-08-20T15:01:18.544Z,78.25
2022-08-20T15:02:18.532Z,73.25
2022-08-20T15:03:18.569Z,61.75
2022-08-20T15:04:18.631Z,64
2022-08-20T15:05:18.654Z,77.5
2022-08-20T15:06:21.918Z,948.5
2022-08-20T15:07:18.723Z,682
2022-08-20T15:08:23.784Z,567
2022-08-20T15:09:18.798Z,730.5
2022-08-20T15:10:18.832Z,672.625
2022-08-20T15:11:18.886Z,663.25
2022-08-20T15:20:44.646Z,478.25
2022-08-20T15:21:45.813Z,454.25
2022-08-20T15:22:44.711Z,444.25
2022-08-20T15:23:44.751Z,415.75
2022-08-20T15:24:20.189Z,397
2022-08-20T15:25:25.249Z,379.375
2022-08-20T15:26:11.524Z,355.625
2022-08-20T15:26:35.758Z,341
2022-08-20T15:27:13.001Z,324.375
2022-08-20T15:28:13.035Z,318
2022-08-20T15:29:13.074Z,303.25
2022-08-20T15:30:13.108Z,290.5
2022-08-20T15:31:06.486Z,389.5
2022-08-20T15:32:06.523Z,405.375
2022-08-20T15:33:06.559Z,422.5
2022-08-20T15:33:37.888Z,432.375
2022-08-20T15:34:22.043Z,422.625
2022-08-20T15:34:28.564Z,426
2022-08-20T15:34:48.945Z,419.5
2022-08-20T15:35:35.952Z,406.75
2022-08-20T15:35:58.268Z,402.25
2022-08-20T15:36:17.931Z,396.375
2022-08-20T15:37:17.973Z,452.5
2022-08-20T15:37:32.374Z,465
2022-08-20T15:38:11.606Z,509.625
2022-08-20T15:38:27.660Z,599.375
2022-08-20T15:39:24.206Z,553
2022-08-20T15:39:40.043Z,551
2022-08-20T15:40:40.041Z,535.5
2022-08-20T15:41:40.088Z,611.625
2022-08-20T15:45:31.573Z,337
2022-08-20T15:48:29.911Z,371.375
2022-08-20T15:49:09.221Z,423.5
2022-08-20T15:50:07.981Z,351.125
2022-08-20T15:51:07.058Z,373.75
2022-08-20T15:52:07.111Z,369.75
2022-08-20T15:53:07.175Z,369.75
2022-08-20T15:54:07.238Z,369.75
2022-08-20T15:55:07.302Z,369.75
2022-08-20T15:56:07.359Z,369.75
2022-08-20T15:57:07.417Z,369.75
2022-08-20T15:58:07.478Z,369.75
2022-08-20T15:59:07.542Z,369.75
2022-08-20T16:00:07.600Z,369.75
2022-08-20T16:01:45.733Z,289.125
2022-08-20T16:02:45.713Z,309
2022-08-20T16:03:28.389Z,296.375
2022-08-20T16:12:04.470Z,155.75
2022-08-20T16:13:04.504Z,169.875
2022-08-20T16:14:04.539Z,164.5
2022-08-20T16:15:04.595Z,164.875
2022-08-20T16:16:04.627Z,170.5
2022-08-20T16:17:04.648Z,162.625
2022-08-20T16:18:04.685Z,164
2022-08-20T16:19:04.726Z,159.5
2022-08-20T16:20:04.759Z,155.75
2022-08-20T16:21:04.801Z,154
2022-08-20T16:22:04.838Z,150.5
2022-08-20T16:23:04.870Z,146.875
2022-08-20T16:24:04.912Z,146
2022-08-20T16:25:04.990Z,145.125
2022-08-20T16:26:04.991Z,140.875
2022-08-20T16:27:05.035Z,139.25
2022-08-20T16:28:05.078Z,138
2022-08-20T16:29:05.113Z,137.875
2022-08-20T16:30:05.179Z,133.5
2022-08-20T16:31:05.200Z,133.625
2022-08-20T16:32:05.242Z,131.75
2022-08-20T16:33:05.279Z,130.125
2022-08-20T16:34:05.326Z,129.375
2022-08-20T16:35:05.373Z,128.125
2022-08-20T16:36:05.415Z,127
2022-08-20T16:37:05.454Z,125.5
2022-08-20T16:38:05.489Z,124.5
2022-08-20T16:39:05.526Z,124.75
2022-08-20T16:40:05.644Z,122.75
2022-08-20T16:41:05.613Z,122.5
2022-08-20T16:43:31.713Z,100.375
2022-08-20T16:44:31.752Z,113.875
2022-08-20T16:45:31.824Z,114
2022-08-20T16:46:36.120Z,113
2022-08-20T16:47:31.894Z,151.5
2022-08-20T16:48:31.927Z,18.75
2022-08-20T16:49:31.976Z,17.25
2022-08-20T16:50:32.029Z,17.25
2022-08-20T16:51:32.089Z,17.25
2022-08-20T16:52:32.143Z,17.25
2022-08-20T16:53:41.196Z,15
2022-08-20T16:54:50.267Z,13
2022-08-20T17:03:50.698Z,10.75
2022-08-20T17:04:58.757Z,12.875
2022-08-20T17:05:50.792Z,12.75
2022-08-20T17:06:50.839Z,12.75
2022-08-20T17:07:51.468Z,12.75
2022-08-20T17:08:51.111Z,117
2022-08-20T17:09:50.969Z,116.75
2022-08-20T17:10:51.011Z,118.75
2022-08-20T17:11:51.052Z,341.625
2022-08-20T17:12:51.087Z,324
2022-08-20T17:13:51.129Z,299
2022-08-20T17:14:51.171Z,263.5
2022-08-20T17:15:52.298Z,236
2022-08-20T17:16:51.249Z,231.375
2022-08-20T17:17:51.298Z,231.375
2022-08-20T17:18:51.375Z,231.375
2022-08-20T17:19:51.407Z,231.375
2022-08-20T17:20:51.473Z,231.375
2022-08-20T17:21:51.515Z,231.375
2022-08-20T17:22:51.568Z,231.375
2022-08-20T17:23:56.425Z,231.375
2022-08-20T17:24:51.678Z,231.375
2022-08-20T17:25:51.738Z,231.375
2022-08-20T17:26:54.070Z,231.375
2022-08-20T17:38:44.349Z,87.3571
2022-08-20T17:39:44.447Z,114
2022-08-20T17:40:44.423Z,85.5
2022-08-20T17:40:59.348Z,80
2022-08-20T17:41:59.391Z,66.4286
2022-08-20T17:42:59.616Z,55.1429
2022-08-20T17:43:59.467Z,39.9286
2022-08-20T17:44:59.504Z,48.7143
2022-08-20T17:45:59.540Z,30
2022-08-20T17:46:59.577Z,31.5
2022-08-20T17:47:59.611Z,28.4286
2022-08-20T17:48:59.649Z,22.7143
2022-08-20T17:50:02.839Z,25
2022-08-20T17:50:59.749Z,20.5
2022-08-20T17:51:59.759Z,17.8571
2022-08-20T17:52:59.795Z,16.1429
2022-08-20T17:53:59.838Z,15.8571
2022-08-20T17:54:59.882Z,14.2143
2022-08-20T17:56:00.769Z,13.9286
2022-08-20T17:56:59.985Z,15.1429
2022-08-20T17:58:00.030Z,13.2143
2022-08-20T17:59:03.388Z,12.5
2022-08-20T18:00:02.343Z,12.5
2022-08-20T18:01:00.141Z,9.92857
2022-08-20T18:02:00.258Z,10
2022-08-20T18:03:00.197Z,10
2022-08-20T18:04:00.242Z,10
2022-08-20T18:05:00.289Z,8.85714
2022-08-20T18:06:00.364Z,8.21429
2022-08-20T18:07:00.362Z,9.35714
2022-08-20T18:08:00.411Z,8.64286
2022-08-20T18:09:00.454Z,7.64286
2022-08-20T18:10:00.498Z,7.35714
2022-08-20T18:11:00.561Z,7.14286
2022-08-20T18:12:00.581Z,7.35714
2022-08-20T18:13:00.630Z,7
2022-08-20T18:14:00.675Z,6.42857
2022-08-20T18:15:00.719Z,6
2022-08-20T18:16:00.763Z,5.92857
2022-08-20T18:17:00.841Z,5.64286
2022-08-20T18:18:00.861Z,5.64286
2022-08-20T18:19:00.903Z,5.5
2022-08-20T18:20:00.949Z,5.71429
2022-08-20T18:21:00.998Z,6.35714
2022-08-20T18:22:01.044Z,5.92857
2022-08-20T18:23:01.105Z,5.92857
2022-08-20T18:24:01.144Z,5.85714
2022-08-20T18:25:01.198Z,6.5
2022-08-20T18:26:01.240Z,6
2022-08-20T18:27:01.317Z,6.35714
2022-08-20T18:28:01.339Z,6.21429
2022-08-20T18:29:01.382Z,6.42857
2022-08-20T18:30:01.426Z,6.14286
2022-08-20T18:31:01.475Z,6
2022-08-20T18:32:01.552Z,6
2022-08-20T18:33:01.582Z,5.42857
2022-08-20T18:34:01.614Z,6
2022-08-20T18:35:03.939Z,5.92857
2022-08-20T18:36:01.712Z,6.5
2022-08-20T18:37:01.788Z,5.64286
2022-08-20T18:38:01.806Z,10.8571
2022-08-20T18:39:01.847Z,5.92857
2022-08-20T18:40:01.968Z,5.64286
2022-08-20T18:41:01.958Z,5.21429
2022-08-20T18:42:02.007Z,5.92857
2022-08-20T18:43:02.036Z,5.42857
2022-08-20T18:44:02.084Z,5.64286
2022-08-20T18:45:02.164Z,5.71429
2022-08-20T18:46:02.185Z,5.71429
2022-08-20T18:47:02.242Z,5.42857
2022-08-20T18:48:02.293Z,5.42857
2022-08-20T18:49:02.330Z,5.14286
2022-08-20T18:50:02.381Z,5.35714
2022-08-20T18:51:02.434Z,5.42857
2022-08-20T18:52:02.474Z,5.64286
2022-08-20T18:53:02.545Z,5.35714
2022-08-20T18:54:02.567Z,5.21429
2022-08-20T18:55:02.620Z,5.35714
2022-08-20T18:56:02.663Z,5
2022-08-20T18:57:02.708Z,5.35714
2022-08-20T18:58:02.757Z,5.64286
2022-08-20T18:59:02.801Z,5.42857
2022-08-20T19:00:02.851Z,5.14286
2022-08-20T19:01:02.896Z,5.64286
2022-08-20T19:02:03.001Z,5.21429
2022-08-20T19:03:02.983Z,5.42857
2022-08-20T19:04:03.034Z,5
2022-08-20T19:05:03.121Z,4.92857
2022-08-20T19:06:03.127Z,5.35714
2022-08-20T19:07:03.187Z,5.42857
2022-08-20T19:08:03.215Z,5.5
2022-08-20T19:09:03.304Z,4.92857
2022-08-20T19:10:03.300Z,4.71429
2022-08-20T19:11:03.329Z,782
2022-08-20T19:12:03.369Z,140.214
2022-08-20T19:13:03.405Z,115.929
2022-08-20T19:14:03.463Z,205.143
2022-08-20T19:15:03.483Z,230.429
2022-08-20T19:16:03.554Z,230.429
2022-08-20T19:17:03.560Z,334
2022-08-20T19:18:03.611Z,548.929
2022-08-20T19:19:03.651Z,516.214
2022-08-20T19:20:03.670Z,281.929
2022-08-20T19:21:03.708Z,509
2022-08-20T19:22:03.754Z,294.643
2022-08-20T19:23:03.802Z,244
2022-08-20T19:24:03.839Z,198.714
2022-08-20T19:25:03.896Z,157.714
2022-08-20T19:26:03.921Z,124.429
2022-08-20T19:27:03.962Z,103.714
2022-08-20T19:28:04.007Z,79.5
2022-08-20T19:29:04.055Z,79.5
2022-08-20T19:30:04.104Z,79.5
2022-08-20T19:31:04.161Z,79.5
2022-08-20T19:32:04.195Z,48.2143
2022-08-20T19:33:04.231Z,1999.93
2022-08-20T19:34:20.314Z,543.643
2022-08-20T19:35:04.305Z,289.857
2022-08-20T19:36:04.344Z,250.5
2022-08-20T19:37:10.032Z,245.857
2022-08-20T19:38:04.415Z,260
2022-08-20T19:39:04.451Z,265.929
2022-08-20T19:40:05.182Z,284.357
2022-08-20T19:41:11.327Z,254.357
2022-08-20T19:42:04.565Z,207.214
2022-08-20T19:43:04.616Z,184.214
2022-08-20T20:35:31.058Z,344.929
2022-08-20T20:36:31.073Z,325.714
2022-08-20T20:37:50.326Z,314.143
2022-08-20T20:38:31.138Z,267.143
2022-08-20T20:39:31.180Z,274
2022-08-20T20:40:33.775Z,210.5
2022-08-20T20:41:31.238Z,179.143
2022-08-20T20:42:31.293Z,167.214
2022-08-20T20:43:31.317Z,176.214
2022-08-20T20:44:35.205Z,166
2022-08-20T20:45:31.385Z,148.143
2022-08-20T20:46:31.417Z,128.857
2022-08-20T20:47:31.470Z,129.429
2022-08-20T20:48:32.886Z,120.214
2022-08-20T20:49:31.534Z,104.357
2022-08-20T20:50:31.570Z,79.4286
2022-08-20T20:51:31.625Z,79.4286
2022-08-20T20:52:31.699Z,79.4286
2022-08-20T20:53:51.109Z,69.8571
2022-08-20T20:54:31.774Z,66.7143
2022-08-20T20:55:31.803Z,54.1429
2022-08-20T20:56:31.852Z,130
2022-08-20T20:57:38.173Z,119.714
2022-08-20T20:58:31.911Z,98.7143
2022-08-20T20:59:31.950Z,459.643
2022-08-20T21:00:31.988Z,276.929
2022-08-20T21:01:47.897Z,316.714
2022-08-20T21:02:32.055Z,369.214
2022-08-20T21:03:32.091Z,458.5
2022-08-20T21:04:32.128Z,566.214
2022-08-20T21:05:32.191Z,501.357
2022-08-20T21:06:32.204Z,515.143
2022-08-20T21:07:32.267Z,501.357
2022-08-20T21:08:32.279Z,440.214
2022-08-20T21:09:32.314Z,386.214
2022-08-20T21:10:32.345Z,354.5
2022-08-20T21:11:32.409Z,391.5
2022-08-20T21:12:32.422Z,465.357
2022-08-20T21:13:32.451Z,549.929
2022-08-20T21:14:32.489Z,632.5
2022-08-20T21:15:32.531Z,562.857
2022-08-20T21:16:32.566Z,594
2022-08-20T21:17:32.612Z,606.714
2022-08-20T21:18:32.642Z,584.5
2022-08-20T21:19:32.672Z,489.143
2022-08-20T21:20:32.705Z,424.214
2022-08-20T21:21:32.738Z,514.429
2022-08-20T21:22:32.775Z,473.357
2022-08-20T21:23:40.127Z,428.857
2022-08-20T21:24:32.845Z,398.929
2022-08-20T21:25:32.878Z,349.929
2022-08-20T21:26:32.919Z,465.929
2022-08-20T21:27:32.953Z,446.643
2022-08-20T21:28:33.014Z,459.429
2022-08-20T21:29:33.156Z,476.357
2022-08-20T21:30:33.074Z,543.143
2022-08-20T21:31:33.110Z,600.143
2022-08-20T21:32:33.145Z,549.143
2022-08-20T21:33:33.178Z,569.5
2022-08-20T21:34:33.220Z,414.714
2022-08-20T21:35:33.258Z,594.429
2022-08-20T21:36:33.288Z,474.857
2022-08-20T21:37:33.322Z,478.5
2022-08-20T21:38:33.361Z,434.143
2022-08-20T21:39:33.395Z,351.714
2022-08-20T21:40:33.439Z,354.143
2022-08-20T21:41:33.474Z,344
2022-08-20T21:42:33.506Z,291.357
2022-08-20T21:43:33.545Z,341.643
2022-08-20T21:44:33.574Z,292.143
2022-08-20T21:45:33.610Z,235
2022-08-20T21:46:33.651Z,232
2022-08-20T21:47:33.686Z,211.643
2022-08-20T21:48:33.733Z,183.214
2022-08-20T21:49:33.749Z,164.357
2022-08-20T21:50:33.794Z,127.143
2022-08-20T21:51:33.833Z,137
2022-08-20T21:52:35.455Z,137.929
2022-08-20T21:53:33.907Z,129.214
2022-08-20T21:54:33.942Z,110.857
2022-08-20T21:55:37.512Z,100.5
2022-08-20T21:56:34.031Z,103.714
2022-08-20T21:57:34.088Z,90
2022-08-20T21:58:34.091Z,94.4286
2022-08-20T21:59:34.166Z,82.7143
2022-08-20T22:00:34.166Z,76.2143
2022-08-20T22:01:34.267Z,67.4286
2022-08-20T22:02:34.235Z,68.2143
2022-08-20T22:03:34.272Z,69.3571
2022-08-20T22:04:35.615Z,59.1429
2022-08-20T22:05:34.349Z,46
2022-08-20T22:06:34.387Z,57.1429
2022-08-20T22:07:34.442Z,53.8571
2022-08-20T22:08:34.461Z,53.9286
2022-08-20T22:09:34.512Z,50.5
2022-08-20T22:10:34.540Z,115.429
2022-08-20T22:11:34.574Z,157.714
2022-08-20T22:12:34.613Z,227.357
2022-08-20T22:13:34.647Z,196.214
2022-08-20T22:14:34.688Z,197.143
2022-08-20T22:15:34.730Z,177.929
2022-08-20T22:16:34.783Z,120.857
2022-08-20T22:17:34.795Z,125.5
2022-08-20T22:18:34.831Z,121.214
2022-08-20T22:19:34.861Z,110.5
2022-08-20T22:20:34.896Z,94.6429
2022-08-20T22:21:34.953Z,94
2022-08-20T22:22:34.972Z,82.4286
2022-08-20T22:23:35.009Z,71.9286
2022-08-20T22:24:35.052Z,58.8571
2022-08-20T22:25:35.094Z,53.9286
2022-08-20T22:26:35.171Z,49.9286
2022-08-20T22:27:35.174Z,47.3571
2022-08-20T22:28:35.203Z,38.7143
2022-08-20T22:29:35.241Z,31.4286
2022-08-20T22:30:38.318Z,36.8571
2022-08-20T22:31:35.340Z,29.3571
2022-08-20T22:32:51.631Z,27.7143
2022-08-20T22:33:35.391Z,31.1429
2022-08-20T22:34:35.429Z,26.7143
2022-08-20T22:35:35.467Z,27
2022-08-20T22:36:35.533Z,23.7143
2022-08-20T22:37:35.545Z,18.5
2022-08-20T22:38:35.619Z,20.1429
2022-08-20T22:39:35.676Z,21.6429
2022-08-20T22:40:35.655Z,19.5
2022-08-20T22:41:35.690Z,17.7143
2022-08-20T22:42:35.733Z,17.6429
2022-08-20T22:43:35.790Z,14.7143
2022-08-20T22:44:35.814Z,14.2143
2022-08-20T22:45:35.853Z,13.6429
2022-08-20T22:46:35.894Z,11.9286
2022-08-20T22:47:35.936Z,12.4286
2022-08-20T22:48:35.967Z,12.2143
2022-08-20T22:49:36.006Z,11.2143
2022-08-20T22:50:36.047Z,10.8571
2022-08-20T22:51:36.082Z,10.5
2022-08-20T22:52:36.121Z,10.5
2022-08-20T22:53:36.159Z,9.92857
2022-08-20T22:54:36.200Z,10.2143
2022-08-20T22:55:36.238Z,9.85714
2022-08-20T22:56:36.275Z,9.64286
2022-08-20T22:57:36.314Z,8.42857
2022-08-20T22:58:36.356Z,8.71429
2022-08-20T22:59:41.432Z,7.85714
2022-08-20T23:00:36.428Z,8
2022-08-20T23:01:36.547Z,7.5
2022-08-20T23:02:36.503Z,7.21429
2022-08-20T23:03:40.023Z,6.92857
2022-08-20T23:04:36.576Z,7.5
2022-08-20T23:05:36.620Z,7.21429
2022-08-20T23:06:36.683Z,6.71429
2022-08-20T23:07:36.696Z,6.5
2022-08-20T23:08:36.736Z,6.64286
2022-08-20T23:09:36.792Z,6.42857
2022-08-20T23:10:36.809Z,6.14286
2022-08-20T23:11:36.853Z,6
2022-08-20T23:12:36.892Z,5.64286
2022-08-20T23:13:36.929Z,5.85714
2022-08-20T23:14:36.974Z,6.14286
2022-08-20T23:15:37.010Z,5.42857
2022-08-20T23:16:37.051Z,5.85714
2022-08-20T23:17:37.086Z,5.71429
2022-08-20T23:18:37.128Z,5.85714
2022-08-20T23:19:37.167Z,6
2022-08-20T23:20:37.220Z,5.21429
2022-08-20T23:21:37.233Z,5.35714
2022-08-20T23:22:37.268Z,5.5
2022-08-20T23:23:37.297Z,5.42857
2022-08-20T23:24:37.342Z,5.5
2022-08-20T23:25:37.415Z,5.14286
2022-08-20T23:26:37.431Z,5.21429
2022-08-20T23:27:37.473Z,4.92857
2022-08-20T23:28:37.530Z,4.92857
2022-08-20T23:29:37.551Z,4.71429
2022-08-20T23:30:37.591Z,5.14286
2022-08-20T23:31:37.628Z,5
2022-08-20T23:32:37.671Z,5.35714
2022-08-20T23:33:39.862Z,4.85714
2022-08-20T23:34:37.753Z,4.71429
2022-08-20T23:35:37.787Z,5
2022-08-20T23:36:37.826Z,4.71429
2022-08-20T23:37:37.895Z,4.85714
2022-08-20T23:38:37.917Z,4.85714
2022-08-20T23:39:38.012Z,5
2022-08-20T23:40:37.990Z,5.21429
2022-08-20T23:41:38.060Z,5.14286
2022-08-20T23:42:38.066Z,4.92857
2022-08-20T23:43:38.104Z,5
2022-08-20T23:44:38.151Z,4.85714
2022-08-20T23:45:39.807Z,5.21429
2022-08-20T23:46:38.254Z,4.64286
2022-08-20T23:47:38.269Z,5.14286
2022-08-20T23:48:38.306Z,4.71429
2022-08-20T23:49:38.348Z,4.85714
2022-08-20T23:50:38.388Z,4.92857
2022-08-20T23:51:39.132Z,4.92857
2022-08-20T23:52:38.464Z,4.71429
2022-08-20T23:53:38.504Z,4.64286
2022-08-20T23:54:38.548Z,4.71429
2022-08-20T23:55:38.591Z,4.85714
2022-08-20T23:56:38.631Z,5.21429
2022-08-20T23:57:38.670Z,4.85714
2022-08-20T23:58:38.711Z,4.5
2022-08-20T23:59:38.746Z,4.85714
